首页
METAR-TAF:

METAR-TAF

机场 :

马塔维里国际机场

復活節島, 智利

纬度: 27-09S, 经度: 109-25W, 海拔: 51米

当前天气观测

该预报发布于48分钟前的23:00 UTC
风速11节,风向西转西北,在西北转西北之间变化
温度 23°C
湿度 73%
气压 1020 hPa
能见度10公里或以上
多云层高于2000英尺

METAR: SCIP 212300Z 30011KT 270V330 9999 BKN020 23/18 Q1020 NOSIG

时间: 18:48 (23:48 UTC)

预报

该预报发布于1小时和45分钟前的22:03 UTC
预报有效从22日的 00点(UTC)到 23日的 00点(UTC)
风速10节,风向西转西北
能见度10公里或以上
散云层高于2000英尺
几率 30% :
短暂存在
从 22日的 00点(UTC)到 22日的 03点(UTC)
风速5节,风向西
能見度: 7000
多云层高于1500英尺
小阵雨
成为
从 22日的 04点(UTC)到 22日的 06点(UTC)
风速5节,风向西转西北
散云层高于2000英尺
散云层高于4000英尺
几率 30% :
短暂存在
从 22日的 10点(UTC)到 22日的 16点(UTC)
风速10节,风向西
能見度: 7000
多云层高于1500英尺
小阵雨
成为
从 22日的 17点(UTC)到 22日的 19点(UTC)
风速12节,风向西北
散云层高于2000英尺

TAF: SCIP 212203Z 2200/2300 30010KT 9999 SCT020 TN18/2210Z TX24/2220Z PROB30 TEMPO 2200/2203 27005KT 7000 -SHRA BKN015 BECMG 2204/2206 30005KT SCT020 SCT040 PROB30 TEMPO 2210/2216 27010KT 7000 -SHRA BKN015 BECMG 2217/2219 31012KT SCT020

超过4000个机场的气象观测和天气预报(METAR&TAF报告)。

可查询的气象台以黄色和红色小点在地图上表示。

将鼠标移到小点上方,可查看气象台名称。

然后点击查看天气观测和预报。

如需切换地图:点击带黑十字的绿色按钮放大地图;点击带横线的绿色按钮缩小地图;或者点击绿色箭头查看邻近地区的地图。


METAR-TAF: